Terminal Aerodrome Forecast
Issued by NWS Dallas/Fort Worth, TX

Home | Current Version | Previous Version | Text Only | Print | Product List | Glossary On
Versions: 1 2 3 4 5 6 7 8 9 10 11 12 13 14 15 16 17 18 19
000
FTUS44 KFWD 261700
TAFACT
TAF
KACT 261738Z 2618/2718 17011KT P6SM OVC015
     FM270200 16006KT 5SM BR OVC007
     FM271000 32016KT 6SM BR OVC012
     FM271700 33017KT P6SM OVC022=

USA.gov is the U.S. government's official web portal to all federal, state and local government web resources and services.